Time;durP1;ratioP1;P1;durP2;ratioP2;P2;SDS_P1;SDS_P2;PMS_P1;PMS_P2;Temp;Humidity;BMP_temperature;BMP_pressure;BME280_temperature;BME280_humidity;BME280_pressure;Samples;Min_cycle;Max_cycle;Signal;HPM_P1;HPM_P2
2024/03/11 00:02:07;;;;;;;4.85;2.75;;;;;;;;;;5091782;28;20092;-65
2024/03/11 00:04:34;;;;;;;7.70;2.83;;;;;;;;;;5092953;28;20099;-65
2024/03/11 00:07:01;;;;;;;5.75;2.83;;;;;;;;;;5092653;28;20405;-65
2024/03/11 00:09:29;;;;;;;5.47;2.85;;;;;;;;;;5093234;28;20016;-63
2024/03/11 00:11:59;;;;;;;7.53;3.38;;;;;;;;;;5092507;28;20023;-66
2024/03/11 00:14:33;;;;;;;6.32;3.10;;;;;;;;;;5093227;28;20409;-65
2024/03/11 00:16:59;;;;;;;5.43;3.22;;;;;;;;;;5094356;28;20031;-66
2024/03/11 00:19:27;;;;;;;11.40;3.47;;;;;;;;;;5112002;28;20031;-65
2024/03/11 00:21:53;;;;;;;10.50;2.97;;;;;;;;;;5112894;28;20122;-65
2024/03/11 00:24:19;;;;;;;12.43;3.10;;;;;;;;;;5111718;28;20110;-65
2024/03/11 00:26:45;;;;;;;10.65;3.35;;;;;;;;;;5100815;28;20021;-65
2024/03/11 00:29:10;;;;;;;9.52;3.13;;;;;;;;;;5092570;28;20399;-66
2024/03/11 00:31:36;;;;;;;8.93;3.40;;;;;;;;;;5074244;28;20112;-66
2024/03/11 00:34:03;;;;;;;7.30;3.20;;;;;;;;;;5092806;28;20034;-64
2024/03/11 00:36:30;;;;;;;7.65;2.85;;;;;;;;;;5092894;28;20020;-65
2024/03/11 00:38:56;;;;;;;8.88;2.97;;;;;;;;;;5092477;28;20020;-66
2024/03/11 00:41:21;;;;;;;11.80;3.50;;;;;;;;;;5091177;28;20404;-64
2024/03/11 00:43:47;;;;;;;10.13;3.75;;;;;;;;;;5093997;28;20062;-65
2024/03/11 00:46:12;;;;;;;8.80;3.30;;;;;;;;;;5103005;28;20027;-65
2024/03/11 00:48:38;;;;;;;8.57;2.95;;;;;;;;;;5112700;28;20019;-65
2024/03/11 00:51:04;;;;;;;8.25;3.35;;;;;;;;;;5111348;28;20027;-65
2024/03/11 00:53:29;;;;;;;7.90;3.40;;;;;;;;;;5111683;28;20387;-67
2024/03/11 00:55:55;;;;;;;10.93;3.47;;;;;;;;;;5095338;28;20066;-64
2024/03/11 00:58:21;;;;;;;5.70;2.92;;;;;;;;;;5111653;28;20051;-65
2024/03/11 01:00:46;;;;;;;8.32;3.13;;;;;;;;;;5106629;28;20012;-65
2024/03/11 01:03:13;;;;;;;10.10;3.75;;;;;;;;;;5092051;28;20039;-64
2024/03/11 01:05:39;;;;;;;8.13;3.28;;;;;;;;;;5093484;28;20509;-63
2024/03/11 01:08:04;;;;;;;11.07;3.35;;;;;;;;;;5091926;28;20123;-62
2024/03/11 01:10:30;;;;;;;5.38;3.30;;;;;;;;;;5073997;28;20169;-63
2024/03/11 01:12:55;;;;;;;9.20;3.55;;;;;;;;;;5090682;28;20427;-64
2024/03/11 01:15:20;;;;;;;17.45;3.63;;;;;;;;;;5090882;28;20031;-66
2024/03/11 01:17:46;;;;;;;7.82;3.10;;;;;;;;;;5091135;28;20024;-65
2024/03/11 01:20:13;;;;;;;10.23;3.95;;;;;;;;;;5096422;28;20028;-64
2024/03/11 01:22:39;;;;;;;6.50;2.80;;;;;;;;;;5111134;28;20042;-64
2024/03/11 01:25:05;;;;;;;8.52;3.28;;;;;;;;;;5104436;28;20103;-65
2024/03/11 01:27:32;;;;;;;8.88;3.00;;;;;;;;;;5091608;28;20514;-62
2024/03/11 01:29:58;;;;;;;9.52;3.13;;;;;;;;;;5091128;28;20507;-64
2024/03/11 01:32:23;;;;;;;14.80;3.63;;;;;;;;;;5090939;28;20020;-65
2024/03/11 01:34:49;;;;;;;13.02;3.67;;;;;;;;;;5091801;28;20060;-64
2024/03/11 01:37:15;;;;;;;7.82;3.67;;;;;;;;;;5094030;28;20052;-66
2024/03/11 01:39:44;;;;;;;21.40;3.78;;;;;;;;;;5100290;28;20833;-66
2024/03/11 01:42:14;;;;;;;6.07;3.20;;;;;;;;;;5115849;28;20035;-65
2024/03/11 01:44:43;;;;;;;10.73;4.28;;;;;;;;;;5116440;27;20023;-66
2024/03/11 01:47:09;;;;;;;10.13;3.53;;;;;;;;;;5087215;28;20023;-66
2024/03/11 01:49:36;;;;;;;7.22;3.25;;;;;;;;;;5075085;28;20024;-66
2024/03/11 01:52:03;;;;;;;5.32;3.03;;;;;;;;;;5074137;28;20131;-64
2024/03/11 01:54:28;;;;;;;6.28;3.30;;;;;;;;;;5074836;28;20043;-65
2024/03/11 01:56:55;;;;;;;10.35;3.80;;;;;;;;;;5074830;28;20355;-63
2024/03/11 01:59:21;;;;;;;6.70;3.10;;;;;;;;;;5103306;28;20094;-65
2024/03/11 02:01:47;;;;;;;6.63;3.58;;;;;;;;;;5106059;28;20427;-66
2024/03/11 02:04:13;;;;;;;7.78;3.78;;;;;;;;;;5095601;28;20199;-64
2024/03/11 02:06:38;;;;;;;6.47;3.72;;;;;;;;;;5093997;28;20347;-64
2024/03/11 02:09:04;;;;;;;7.55;3.20;;;;;;;;;;5095132;28;20020;-63
2024/03/11 02:11:30;;;;;;;11.55;3.60;;;;;;;;;;5095536;28;20024;-64
2024/03/11 02:13:55;;;;;;;5.65;3.47;;;;;;;;;;5094324;28;20537;-64
2024/03/11 02:16:22;;;;;;;6.63;3.60;;;;;;;;;;5098961;28;20039;-65
2024/03/11 02:19:11;;;;;;;6.72;3.33;;;;;;;;;;5100731;28;20027;-64
2024/03/11 02:21:41;;;;;;;5.97;3.33;;;;;;;;;;5115688;28;20015;-66
2024/03/11 02:24:06;;;;;;;8.63;3.65;;;;;;;;;;5115321;27;20024;-64
2024/03/11 02:26:32;;;;;;;10.45;4.00;;;;;;;;;;5114944;28;20164;-64
2024/03/11 02:28:57;;;;;;;5.75;3.45;;;;;;;;;;5115382;28;20019;-64
2024/03/11 02:31:23;;;;;;;8.63;3.55;;;;;;;;;;5113357;28;20345;-65
2024/03/11 02:33:48;;;;;;;8.18;3.80;;;;;;;;;;5115331;28;20100;-65
2024/03/11 02:36:14;;;;;;;9.10;3.70;;;;;;;;;;5110646;28;20022;-65
2024/03/11 02:38:39;;;;;;;7.15;3.55;;;;;;;;;;5094729;28;20062;-64
2024/03/11 02:41:05;;;;;;;7.53;3.63;;;;;;;;;;5094107;28;20404;-65
2024/03/11 02:43:30;;;;;;;9.30;3.83;;;;;;;;;;5093750;28;20034;-63
2024/03/11 02:45:56;;;;;;;7.63;3.33;;;;;;;;;;5093323;28;20051;-64
2024/03/11 02:48:21;;;;;;;11.63;4.25;;;;;;;;;;5094236;28;20103;-64
2024/03/11 02:50:47;;;;;;;7.82;3.95;;;;;;;;;;5095019;28;20442;-65
2024/03/11 02:53:12;;;;;;;8.73;3.85;;;;;;;;;;5094352;28;20101;-64
2024/03/11 02:55:38;;;;;;;10.07;3.90;;;;;;;;;;5093197;28;20096;-65
2024/03/11 02:58:04;;;;;;;10.23;4.05;;;;;;;;;;5076882;28;20020;-66
2024/03/11 03:00:29;;;;;;;11.20;4.10;;;;;;;;;;5113937;28;20087;-66
2024/03/11 03:02:55;;;;;;;9.88;4.00;;;;;;;;;;5114745;27;20052;-65
2024/03/11 03:05:21;;;;;;;6.57;3.47;;;;;;;;;;5114156;28;20023;-66
2024/03/11 03:07:46;;;;;;;9.00;3.75;;;;;;;;;;5114423;28;20140;-64
2024/03/11 03:10:12;;;;;;;7.03;3.50;;;;;;;;;;5114316;28;20020;-63
2024/03/11 03:12:37;;;;;;;8.05;3.78;;;;;;;;;;5113260;28;20035;-65
2024/03/11 03:15:04;;;;;;;9.38;4.28;;;;;;;;;;5093676;28;20339;-65
2024/03/11 03:17:30;;;;;;;9.55;4.15;;;;;;;;;;5093700;28;20409;-64
2024/03/11 03:19:55;;;;;;;8.77;4.10;;;;;;;;;;5094121;28;20016;-63
2024/03/11 03:22:21;;;;;;;12.60;3.55;;;;;;;;;;5094701;28;20012;-65
2024/03/11 03:24:47;;;;;;;8.70;4.28;;;;;;;;;;5092868;28;20046;-67
2024/03/11 03:27:12;;;;;;;8.65;3.88;;;;;;;;;;5093733;28;20507;-67
2024/03/11 03:29:40;;;;;;;8.10;4.45;;;;;;;;;;5075659;28;20016;-66
2024/03/11 03:32:08;;;;;;;8.27;3.92;;;;;;;;;;5092627;28;20020;-66
2024/03/11 03:34:33;;;;;;;9.95;4.75;;;;;;;;;;5092597;28;20031;-65
2024/03/11 03:36:59;;;;;;;8.55;4.53;;;;;;;;;;5107209;28;20038;-65
2024/03/11 03:39:24;;;;;;;11.43;4.60;;;;;;;;;;5114326;28;20019;-66
2024/03/11 03:41:50;;;;;;;8.00;4.43;;;;;;;;;;5113857;28;20072;-67
2024/03/11 03:44:16;;;;;;;13.13;5.03;;;;;;;;;;5110021;28;20098;-64
2024/03/11 03:46:41;;;;;;;7.72;4.55;;;;;;;;;;5113355;28;20020;-64
2024/03/11 03:49:07;;;;;;;7.93;4.63;;;;;;;;;;5113485;28;20331;-64
2024/03/11 03:51:33;;;;;;;12.15;4.97;;;;;;;;;;5112297;28;20088;-67
2024/03/11 03:53:58;;;;;;;9.50;4.40;;;;;;;;;;5113482;28;20065;-65
2024/03/11 03:56:25;;;;;;;8.88;4.35;;;;;;;;;;5112884;28;20122;-64
2024/03/11 03:58:51;;;;;;;11.23;4.40;;;;;;;;;;5111644;28;20019;-65
2024/03/11 04:01:17;;;;;;;10.48;4.20;;;;;;;;;;5111929;28;20031;-65
2024/03/11 04:03:42;;;;;;;8.15;3.90;;;;;;;;;;5107914;28;20066;-64
2024/03/11 04:06:09;;;;;;;9.57;3.88;;;;;;;;;;5102327;28;20385;-64
2024/03/11 04:08:34;;;;;;;10.05;4.10;;;;;;;;;;5113885;28;20434;-66
2024/03/11 04:11:00;;;;;;;9.65;4.18;;;;;;;;;;5113690;28;20049;-68
2024/03/11 04:13:28;;;;;;;5.75;3.33;;;;;;;;;;5113233;28;20399;-67
2024/03/11 04:15:56;;;;;;;11.60;4.30;;;;;;;;;;5113755;28;20012;-65
2024/03/11 04:18:23;;;;;;;11.00;3.92;;;;;;;;;;5113549;28;20092;-67
2024/03/11 04:20:55;;;;;;;7.35;4.15;;;;;;;;;;5093253;28;20023;-64
2024/03/11 04:23:22;;;;;;;7.95;3.63;;;;;;;;;;5107973;28;20076;-64
2024/03/11 04:25:49;;;;;;;9.88;4.22;;;;;;;;;;5094163;28;20024;-65
2024/03/11 04:28:14;;;;;;;10.48;4.53;;;;;;;;;;5092860;28;20066;-64
2024/03/11 04:30:40;;;;;;;7.80;4.28;;;;;;;;;;5092314;28;20027;-64
2024/03/11 04:33:06;;;;;;;13.20;4.60;;;;;;;;;;5092209;28;20035;-66
2024/03/11 04:35:33;;;;;;;10.73;4.57;;;;;;;;;;5093024;28;20111;-66
2024/03/11 04:37:59;;;;;;;9.88;4.20;;;;;;;;;;5093195;28;20065;-63
2024/03/11 04:40:26;;;;;;;7.10;3.80;;;;;;;;;;5093198;28;20021;-66
2024/03/11 04:42:55;;;;;;;12.13;4.90;;;;;;;;;;5091982;28;20043;-65
2024/03/11 04:45:21;;;;;;;7.22;4.20;;;;;;;;;;5092437;28;20039;-65
2024/03/11 04:47:47;;;;;;;9.23;4.32;;;;;;;;;;5091319;28;20028;-66
2024/03/11 04:50:14;;;;;;;8.30;4.53;;;;;;;;;;5091119;28;20357;-64
2024/03/11 04:52:39;;;;;;;9.13;4.55;;;;;;;;;;5091816;28;20496;-66
2024/03/11 04:55:06;;;;;;;6.53;3.70;;;;;;;;;;5091588;28;20119;-66
2024/03/11 04:57:32;;;;;;;12.82;4.45;;;;;;;;;;5091595;28;20035;-66
2024/03/11 04:59:57;;;;;;;8.90;4.22;;;;;;;;;;5100908;28;20426;-65
2024/03/11 05:02:22;;;;;;;8.32;4.20;;;;;;;;;;5112459;28;20023;-66
2024/03/11 05:04:48;;;;;;;8.27;4.47;;;;;;;;;;5112357;28;20028;-65
2024/03/11 05:07:13;;;;;;;9.10;4.15;;;;;;;;;;5112305;28;20031;-65
2024/03/11 05:09:40;;;;;;;7.55;4.45;;;;;;;;;;5092505;28;20077;-65
2024/03/11 05:12:06;;;;;;;16.05;4.10;;;;;;;;;;5094077;28;20111;-66
2024/03/11 05:14:31;;;;;;;12.82;4.15;;;;;;;;;;5078761;28;20107;-66
2024/03/11 05:16:56;;;;;;;9.05;4.20;;;;;;;;;;5094980;28;20016;-63
2024/03/11 05:19:22;;;;;;;6.82;3.95;;;;;;;;;;5104001;28;20020;-64
2024/03/11 05:21:47;;;;;;;12.95;4.40;;;;;;;;;;5115732;28;20046;-61
2024/03/11 05:24:13;;;;;;;9.85;4.75;;;;;;;;;;5116284;27;20068;-61
2024/03/11 05:26:38;;;;;;;9.95;4.57;;;;;;;;;;5116333;28;20020;-58
2024/03/11 05:29:03;;;;;;;7.05;4.40;;;;;;;;;;5115690;28;20019;-62
2024/03/11 05:31:29;;;;;;;13.85;4.88;;;;;;;;;;5114347;28;20030;-61
2024/03/11 05:33:54;;;;;;;13.10;4.70;;;;;;;;;;5115998;28;20039;-60
2024/03/11 05:36:20;;;;;;;11.25;4.70;;;;;;;;;;5116631;27;20031;-66
2024/03/11 05:38:46;;;;;;;10.90;4.35;;;;;;;;;;5114836;28;20031;-64
2024/03/11 05:41:12;;;;;;;11.00;4.68;;;;;;;;;;5116261;28;20408;-63
2024/03/11 05:43:37;;;;;;;12.48;4.70;;;;;;;;;;5116498;28;20031;-63
2024/03/11 05:46:02;;;;;;;11.50;4.60;;;;;;;;;;5115602;28;20020;-62
2024/03/11 05:48:28;;;;;;;11.88;5.00;;;;;;;;;;5097917;28;20022;-63
2024/03/11 05:51:01;;;;;;;9.15;4.57;;;;;;;;;;5107752;28;20511;-61
2024/03/11 05:53:28;;;;;;;12.10;4.50;;;;;;;;;;5095883;28;20067;-61
2024/03/11 05:55:54;;;;;;;10.52;4.13;;;;;;;;;;5095368;28;20035;-62
2024/03/11 05:58:26;;;;;;;9.35;4.00;;;;;;;;;;5094900;28;20031;-67
2024/03/11 06:00:52;;;;;;;9.02;4.30;;;;;;;;;;5097001;28;20028;-63
2024/03/11 06:03:18;;;;;;;9.77;4.28;;;;;;;;;;5116001;28;20423;-64
2024/03/11 06:05:43;;;;;;;7.80;3.88;;;;;;;;;;5113851;28;20482;-64
2024/03/11 06:08:09;;;;;;;10.20;4.32;;;;;;;;;;5115219;28;20460;-64
2024/03/11 06:10:35;;;;;;;9.45;4.10;;;;;;;;;;5114580;28;20020;-64
2024/03/11 06:13:01;;;;;;;7.55;4.20;;;;;;;;;;5115820;28;20075;-63
2024/03/11 06:15:26;;;;;;;8.00;4.53;;;;;;;;;;5113472;28;20030;-67
2024/03/11 06:17:52;;;;;;;11.63;4.63;;;;;;;;;;5115422;27;20024;-63
2024/03/11 06:20:17;;;;;;;11.07;4.22;;;;;;;;;;5115638;28;20023;-63
2024/03/11 06:22:43;;;;;;;11.32;5.10;;;;;;;;;;5098602;28;20020;-64
2024/03/11 06:25:10;;;;;;;11.13;4.32;;;;;;;;;;5094858;28;20024;-64
2024/03/11 06:27:36;;;;;;;9.18;4.57;;;;;;;;;;5093811;28;20327;-64
2024/03/11 06:30:02;;;;;;;10.18;4.53;;;;;;;;;;5096100;28;20026;-64
2024/03/11 06:32:30;;;;;;;12.63;4.65;;;;;;;;;;5094954;28;20032;-64
2024/03/11 06:34:57;;;;;;;12.50;4.85;;;;;;;;;;5093574;28;20123;-64
2024/03/11 06:37:22;;;;;;;9.95;4.80;;;;;;;;;;5093313;28;20174;-63
2024/03/11 06:39:47;;;;;;;21.20;6.13;;;;;;;;;;5094866;28;20044;-64
2024/03/11 06:42:13;;;;;;;14.18;6.22;;;;;;;;;;5095175;28;20081;-63
2024/03/11 06:44:38;;;;;;;12.75;5.40;;;;;;;;;;5094825;28;20127;-64
2024/03/11 06:47:04;;;;;;;13.90;5.15;;;;;;;;;;5093911;28;20430;-65
2024/03/11 06:49:32;;;;;;;13.52;5.28;;;;;;;;;;5094178;28;20362;-64
2024/03/11 06:51:57;;;;;;;11.85;4.97;;;;;;;;;;5094357;28;20050;-64
2024/03/11 06:54:23;;;;;;;13.52;5.15;;;;;;;;;;5112056;28;20106;-66
2024/03/11 06:56:48;;;;;;;10.05;5.40;;;;;;;;;;5113595;28;20035;-65
2024/03/11 06:59:13;;;;;;;10.38;5.47;;;;;;;;;;5114665;27;20035;-65
2024/03/11 07:01:39;;;;;;;11.85;5.00;;;;;;;;;;5114735;28;20043;-64
2024/03/11 07:04:05;;;;;;;13.45;5.40;;;;;;;;;;5114801;28;20023;-64
2024/03/11 07:06:30;;;;;;;13.05;4.72;;;;;;;;;;5113999;28;20109;-64
2024/03/11 07:08:56;;;;;;;8.75;4.70;;;;;;;;;;5112939;28;20038;-65
2024/03/11 07:11:21;;;;;;;7.18;4.65;;;;;;;;;;5114281;28;20452;-64
2024/03/11 07:13:47;;;;;;;11.65;4.45;;;;;;;;;;5114109;28;20032;-65
2024/03/11 07:16:13;;;;;;;9.68;4.50;;;;;;;;;;5114640;28;20460;-64
2024/03/11 07:18:42;;;;;;;6.93;4.40;;;;;;;;;;5111591;28;20028;-65
2024/03/11 07:21:07;;;;;;;8.05;4.57;;;;;;;;;;5112476;28;20112;-65
2024/03/11 07:23:33;;;;;;;11.80;4.25;;;;;;;;;;5114717;28;20106;-66
2024/03/11 07:26:00;;;;;;;11.60;4.50;;;;;;;;;;5099394;28;20043;-64
2024/03/11 07:28:29;;;;;;;9.40;4.40;;;;;;;;;;5093420;28;20020;-65
2024/03/11 07:30:55;;;;;;;8.45;4.13;;;;;;;;;;5094173;28;20031;-66
2024/03/11 07:33:22;;;;;;;7.68;4.03;;;;;;;;;;5092624;28;20119;-68
2024/03/11 07:35:49;;;;;;;8.38;3.80;;;;;;;;;;5092576;28;20012;-66
2024/03/11 07:38:14;;;;;;;7.68;4.10;;;;;;;;;;5094137;28;20073;-67
2024/03/11 07:40:40;;;;;;;10.20;4.13;;;;;;;;;;5111400;28;20351;-66
2024/03/11 07:43:08;;;;;;;12.60;4.13;;;;;;;;;;5113685;28;20026;-66
2024/03/11 07:45:34;;;;;;;14.63;4.07;;;;;;;;;;5113202;28;20019;-65
2024/03/11 07:48:01;;;;;;;13.80;4.50;;;;;;;;;;5114269;28;20020;-65
2024/03/11 07:50:27;;;;;;;9.70;4.10;;;;;;;;;;5113911;28;20077;-65
2024/03/11 07:52:54;;;;;;;13.77;4.22;;;;;;;;;;5112101;28;20051;-65
2024/03/11 07:55:22;;;;;;;9.68;3.42;;;;;;;;;;5111822;28;20447;-64
2024/03/11 07:57:48;;;;;;;9.65;3.63;;;;;;;;;;5113943;28;20031;-64
2024/03/11 08:00:18;;;;;;;9.10;2.97;;;;;;;;;;5113728;28;20029;-64
2024/03/11 08:02:50;;;;;;;9.43;3.45;;;;;;;;;;5108559;28;20353;-65
2024/03/11 08:05:17;;;;;;;14.38;3.45;;;;;;;;;;5111963;28;20020;-64
2024/03/11 08:07:44;;;;;;;9.43;3.40;;;;;;;;;;5113233;28;20103;-64
2024/03/11 08:10:12;;;;;;;6.85;3.28;;;;;;;;;;5091626;28;20050;-64
2024/03/11 08:12:38;;;;;;;8.50;3.30;;;;;;;;;;5086590;28;20425;-66
2024/03/11 08:15:06;;;;;;;11.18;3.17;;;;;;;;;;5091284;28;20047;-65
2024/03/11 08:17:31;;;;;;;6.00;2.80;;;;;;;;;;5091163;28;20529;-66
2024/03/11 08:19:57;;;;;;;12.30;3.88;;;;;;;;;;5093327;28;20048;-66
2024/03/11 08:22:22;;;;;;;14.35;3.38;;;;;;;;;;5093515;28;20020;-76
2024/03/11 08:24:48;;;;;;;9.88;3.33;;;;;;;;;;5092070;28;20020;-76
2024/03/11 08:27:15;;;;;;;5.05;3.05;;;;;;;;;;5090547;28;20020;-64
2024/03/11 08:29:41;;;;;;;10.82;3.35;;;;;;;;;;5085254;28;20028;-67
2024/03/11 08:32:07;;;;;;;10.95;3.30;;;;;;;;;;5081382;28;20024;-67
2024/03/11 08:34:35;;;;;;;10.38;3.75;;;;;;;;;;5088742;28;20804;-68
2024/03/11 08:37:03;;;;;;;6.90;3.20;;;;;;;;;;5074657;28;20085;-69
2024/03/11 08:39:30;;;;;;;7.72;3.42;;;;;;;;;;5089810;28;20032;-67
2024/03/11 08:41:55;;;;;;;5.47;3.17;;;;;;;;;;5075573;28;20112;-67
2024/03/11 08:44:21;;;;;;;8.38;4.00;;;;;;;;;;5070275;28;20112;-68
2024/03/11 08:46:46;;;;;;;5.10;3.28;;;;;;;;;;5070930;28;20025;-65
2024/03/11 08:49:12;;;;;;;10.95;3.45;;;;;;;;;;5055002;28;20051;-66
2024/03/11 08:51:41;;;;;;;8.13;3.78;;;;;;;;;;5071446;28;20054;-64
2024/03/11 08:54:07;;;;;;;8.07;3.83;;;;;;;;;;5077245;28;20110;-66
2024/03/11 08:56:32;;;;;;;8.77;4.10;;;;;;;;;;5076105;28;20039;-64
2024/03/11 08:58:57;;;;;;;12.68;3.38;;;;;;;;;;5074519;28;20027;-66
2024/03/11 09:01:23;;;;;;;12.40;4.60;;;;;;;;;;5086722;28;20024;-77
2024/03/11 09:03:49;;;;;;;7.15;3.58;;;;;;;;;;5110526;28;20016;-64
2024/03/11 09:06:15;;;;;;;9.93;3.70;;;;;;;;;;5092504;28;20028;-59
2024/03/11 09:08:41;;;;;;;11.15;3.88;;;;;;;;;;5088851;28;20020;-70
2024/03/11 09:11:06;;;;;;;7.78;3.65;;;;;;;;;;5087990;28;20129;-65
2024/03/11 09:13:33;;;;;;;6.93;3.40;;;;;;;;;;5087577;28;20130;-68
2024/03/11 09:15:59;;;;;;;9.20;4.15;;;;;;;;;;5088660;28;20343;-66
2024/03/11 09:18:26;;;;;;;6.97;3.75;;;;;;;;;;5091194;28;20089;-68
2024/03/11 09:20:52;;;;;;;6.40;3.75;;;;;;;;;;5091312;28;20031;-67
2024/03/11 09:23:18;;;;;;;12.45;4.03;;;;;;;;;;5085716;28;20024;-66
2024/03/11 09:25:43;;;;;;;5.65;3.75;;;;;;;;;;5077762;28;20133;-65
2024/03/11 09:28:08;;;;;;;14.52;3.45;;;;;;;;;;5082637;28;20115;-67
2024/03/11 09:30:37;;;;;;;5.22;3.70;;;;;;;;;;5089123;28;20324;-67
2024/03/11 09:33:03;;;;;;;6.03;3.50;;;;;;;;;;5090888;28;20046;-71
2024/03/11 09:35:29;;;;;;;8.20;3.72;;;;;;;;;;5081501;28;20103;-68
2024/03/11 09:37:54;;;;;;;8.10;3.92;;;;;;;;;;5076580;28;20103;-67
2024/03/11 09:40:24;;;;;;;19.30;4.35;;;;;;;;;;5088278;28;20043;-69
2024/03/11 09:42:54;;;;;;;4.82;3.70;;;;;;;;;;5084910;28;20409;-66
2024/03/11 09:45:22;;;;;;;7.55;3.90;;;;;;;;;;5092865;28;20020;-68
2024/03/11 09:47:57;;;;;;;6.32;3.35;;;;;;;;;;5081374;28;20020;-68
2024/03/11 09:50:30;;;;;;;;;;;;;;;;;;5079294;28;20020;-66
2024/03/11 09:52:56;;;;;;;12.40;4.07;;;;;;;;;;5078573;28;19927;-67
2024/03/11 09:55:22;;;;;;;6.85;4.10;;;;;;;;;;5077753;28;20111;-64
2024/03/11 09:57:48;;;;;;;9.63;4.20;;;;;;;;;;5081314;28;20036;-66
2024/03/11 10:00:15;;;;;;;10.50;4.82;;;;;;;;;;5090145;28;20024;-67
2024/03/11 10:02:46;;;;;;;10.52;4.75;;;;;;;;;;5093815;28;20042;-71
2024/03/11 10:05:12;;;;;;;7.45;4.63;;;;;;;;;;5075380;28;20104;-64
2024/03/11 10:07:40;;;;;;;7.20;4.57;;;;;;;;;;5074214;28;20027;-67
2024/03/11 10:10:12;;;;;;;9.70;4.78;;;;;;;;;;5097523;28;20023;-65
2024/03/11 10:12:53;;;;;;;9.02;4.70;;;;;;;;;;5115233;27;20035;-69
2024/03/11 10:15:27;;;;;;;5.35;4.20;;;;;;;;;;5088940;28;20354;-67
2024/03/11 10:17:58;;;;;;;8.88;4.20;;;;;;;;;;5097305;28;20404;-66
2024/03/11 10:20:24;;;;;;;8.98;4.38;;;;;;;;;;5087041;28;20103;-68
2024/03/11 10:22:50;;;;;;;9.27;3.85;;;;;;;;;;5097629;28;20407;-66
2024/03/11 10:25:22;;;;;;;6.65;3.90;;;;;;;;;;5109932;28;20023;-66
2024/03/11 10:27:47;;;;;;;8.18;4.43;;;;;;;;;;5114649;28;20024;-69
2024/03/11 10:30:22;;;;;;;7.45;4.90;;;;;;;;;;5114992;28;20760;-76
2024/03/11 10:32:55;;;;;;;8.52;4.50;;;;;;;;;;5101980;27;20032;-72
2024/03/11 10:35:21;;;;;;;5.70;3.78;;;;;;;;;;5094388;28;20085;-69
2024/03/11 10:37:50;;;;;;;5.75;4.00;;;;;;;;;;5093586;28;20032;-70
2024/03/11 10:40:18;;;;;;;7.82;4.10;;;;;;;;;;5093635;28;20035;-67
2024/03/11 10:42:55;;;;;;;8.20;4.65;;;;;;;;;;5094810;28;20111;-71
2024/03/11 10:45:30;;;;;;;7.70;3.78;;;;;;;;;;5093338;28;20378;-73
2024/03/11 10:48:00;;;;;;;12.43;4.45;;;;;;;;;;5094131;28;20028;-71
2024/03/11 10:50:30;;;;;;;8.07;4.07;;;;;;;;;;5103453;28;20446;-68
2024/03/11 10:52:58;;;;;;;7.50;4.32;;;;;;;;;;5114121;28;20082;-68
2024/03/11 10:55:38;;;;;;;8.27;4.32;;;;;;;;;;5108328;28;20031;-68
2024/03/11 10:58:04;;;;;;;5.85;4.00;;;;;;;;;;5113723;28;20019;-71
2024/03/11 11:00:40;;;;;;;10.25;4.95;;;;;;;;;;5114156;28;20024;-71
2024/03/11 11:03:12;;;;;;;7.97;4.10;;;;;;;;;;5114064;28;20020;-70
2024/03/11 11:06:00;;;;;;;10.50;4.45;;;;;;;;;;5111604;28;20028;-75
2024/03/11 11:08:30;;;;;;;6.65;4.53;;;;;;;;;;5073313;28;20028;-73
2024/03/11 11:10:59;;;;;;;11.32;4.32;;;;;;;;;;5083996;28;20458;-73
2024/03/11 11:13:31;;;;;;;6.88;4.15;;;;;;;;;;5093471;28;20044;-72
2024/03/11 11:15:57;;;;;;;9.80;4.30;;;;;;;;;;5095202;28;20081;-68
2024/03/11 11:18:24;;;;;;;9.05;4.68;;;;;;;;;;5093716;28;20097;-71
2024/03/11 11:20:51;;;;;;;9.90;4.60;;;;;;;;;;5113842;28;20441;-71
2024/03/11 11:23:25;;;;;;;7.13;4.00;;;;;;;;;;5114051;28;20398;-62
2024/03/11 11:25:51;;;;;;;7.88;4.10;;;;;;;;;;5102474;28;20024;-70
2024/03/11 11:28:28;;;;;;;6.63;4.05;;;;;;;;;;5091652;28;20081;-62
2024/03/11 11:31:11;;;;;;;6.47;3.90;;;;;;;;;;5111898;28;20039;-68
2024/03/11 11:33:56;;;;;;;7.50;3.13;;;;;;;;;;5108629;28;20481;-67
2024/03/11 11:36:31;;;;;;;6.40;3.17;;;;;;;;;;5112008;28;20038;-69
2024/03/11 11:39:23;;;;;;;5.88;3.35;;;;;;;;;;5112488;28;20110;-68
2024/03/11 11:41:50;;;;;;;5.70;3.90;;;;;;;;;;5088089;28;20027;-75
2024/03/11 11:44:27;;;;;;;7.50;3.67;;;;;;;;;;5091308;28;20023;-69
2024/03/11 11:47:03;;;;;;;6.07;3.75;;;;;;;;;;5090887;28;20074;-69
2024/03/11 11:49:34;;;;;;;5.82;3.45;;;;;;;;;;5092460;28;20028;-70
2024/03/11 11:52:04;;;;;;;5.75;3.60;;;;;;;;;;5092530;28;20052;-70
2024/03/11 11:54:34;;;;;;;9.27;3.65;;;;;;;;;;5096724;28;20031;-69
2024/03/11 11:56:59;;;;;;;12.07;3.70;;;;;;;;;;5096640;28;20024;-70
2024/03/11 11:59:27;;;;;;;8.40;3.83;;;;;;;;;;5092055;28;20028;-67
2024/03/11 12:01:53;;;;;;;5.88;3.45;;;;;;;;;;5092403;28;20347;-72
2024/03/11 12:04:18;;;;;;;7.25;3.53;;;;;;;;;;5092713;28;20082;-70
2024/03/11 12:06:48;;;;;;;7.55;4.32;;;;;;;;;;5092257;28;20066;-68
2024/03/11 12:09:15;;;;;;;6.13;4.00;;;;;;;;;;5093361;28;20012;-69
2024/03/11 12:11:45;;;;;;;5.35;3.67;;;;;;;;;;5091827;28;20028;-67
2024/03/11 12:14:11;;;;;;;9.52;3.25;;;;;;;;;;5104155;28;20049;-75
2024/03/11 12:16:38;;;;;;;9.25;3.72;;;;;;;;;;5113536;28;20027;-76
2024/03/11 12:19:07;;;;;;;10.35;3.60;;;;;;;;;;5113287;28;20023;-71
2024/03/11 12:21:33;;;;;;;7.68;3.55;;;;;;;;;;5111769;28;20020;-75
2024/03/11 12:24:00;;;;;;;8.75;3.80;;;;;;;;;;5112173;28;20353;-68
2024/03/11 12:26:27;;;;;;;7.03;3.42;;;;;;;;;;5102571;28;20016;-67
2024/03/11 12:29:06;;;;;;;4.70;3.20;;;;;;;;;;5092046;28;20362;-64
2024/03/11 12:31:35;;;;;;;11.25;3.60;;;;;;;;;;5093160;28;20115;-66
2024/03/11 12:34:01;;;;;;;6.70;3.50;;;;;;;;;;5091546;28;20370;-66
2024/03/11 12:36:29;;;;;;;6.95;3.40;;;;;;;;;;5092403;28;20106;-66
2024/03/11 12:38:55;;;;;;;5.80;3.17;;;;;;;;;;5092305;28;20366;-67
2024/03/11 12:41:37;;;;;;;5.50;3.50;;;;;;;;;;5091334;28;20031;-64
2024/03/11 12:44:31;;;;;;;7.35;3.53;;;;;;;;;;5091634;28;20314;-67
2024/03/11 12:46:57;;;;;;;6.38;3.45;;;;;;;;;;5109311;28;20100;-69
2024/03/11 12:49:23;;;;;;;7.20;3.53;;;;;;;;;;5111890;28;20031;-72
2024/03/11 12:51:59;;;;;;;6.03;3.42;;;;;;;;;;5096784;28;20044;-70
2024/03/11 12:54:24;;;;;;;8.85;3.40;;;;;;;;;;5103720;28;20126;-72
2024/03/11 12:57:04;;;;;;;7.40;3.13;;;;;;;;;;5102133;28;20108;-71
2024/03/11 12:59:31;;;;;;;5.88;3.55;;;;;;;;;;5091440;28;20024;-74
2024/03/11 13:02:26;;;;;;;8.40;3.65;;;;;;;;;;5091924;28;20027;-69
2024/03/11 13:04:53;;;;;;;6.15;3.20;;;;;;;;;;5073865;28;20071;-71
2024/03/11 13:07:29;;;;;;;8.55;3.83;;;;;;;;;;5090351;28;20031;-69
2024/03/11 13:09:54;;;;;;;;;;;;;;;;;;5072454;28;20043;-69
2024/03/11 13:12:19;;;;;;;;;;;;;;;;;;5081462;28;19916;-67
2024/03/11 13:14:46;;;;;;;8.83;3.60;;;;;;;;;;5092286;28;19915;-69
2024/03/11 13:17:14;;;;;;;8.52;3.80;;;;;;;;;;5099776;28;20008;-67
2024/03/11 13:19:41;;;;;;;6.05;3.33;;;;;;;;;;5112059;28;20358;-69
2024/03/11 13:22:17;;;;;;;11.40;3.80;;;;;;;;;;5111498;28;20062;-68
2024/03/11 13:24:53;;;;;;;7.45;3.42;;;;;;;;;;5112421;28;20095;-71
2024/03/11 13:27:18;;;;;;;7.05;3.90;;;;;;;;;;5100336;28;20020;-68
2024/03/11 13:29:45;;;;;;;4.60;3.25;;;;;;;;;;5091880;28;20027;-72
2024/03/11 13:32:12;;;;;;;8.68;2.95;;;;;;;;;;5093719;28;20012;-73
2024/03/11 13:34:40;;;;;;;5.28;3.33;;;;;;;;;;5095914;28;20060;-72
2024/03/11 13:37:06;;;;;;;2.85;2.35;;;;;;;;;;5095272;28;20737;-69
2024/03/11 13:39:35;;;;;;;6.70;2.45;;;;;;;;;;5095214;28;20016;-70
2024/03/11 13:42:03;;;;;;;5.25;2.35;;;;;;;;;;5108250;28;20020;-71
2024/03/11 13:44:28;;;;;;;8.70;2.70;;;;;;;;;;5096447;28;20125;-74
2024/03/11 13:46:54;;;;;;;4.35;2.20;;;;;;;;;;5094436;28;20024;-75
2024/03/11 13:49:22;;;;;;;5.43;2.45;;;;;;;;;;5093011;28;20024;-68
2024/03/11 13:51:49;;;;;;;4.35;2.30;;;;;;;;;;5094594;28;20072;-71
2024/03/11 13:54:14;;;;;;;3.92;2.53;;;;;;;;;;5077002;28;20525;-75
2024/03/11 13:56:40;;;;;;;6.68;2.70;;;;;;;;;;5111275;28;20026;-63
2024/03/11 13:59:07;;;;;;;5.95;2.85;;;;;;;;;;5114442;28;20047;-63
2024/03/11 14:01:32;;;;;;;4.32;2.55;;;;;;;;;;5116140;28;20027;-65
2024/03/11 14:03:58;;;;;;;3.45;2.38;;;;;;;;;;5109479;28;20465;-63
2024/03/11 14:06:25;;;;;;;4.05;2.60;;;;;;;;;;5094561;28;20024;-62
2024/03/11 14:08:51;;;;;;;6.82;2.45;;;;;;;;;;5095037;28;20023;-69
2024/03/11 14:11:18;;;;;;;6.45;2.58;;;;;;;;;;5096095;28;20044;-63
2024/03/11 14:13:43;;;;;;;5.75;2.67;;;;;;;;;;5095940;28;20043;-62
2024/03/11 14:16:11;;;;;;;4.20;2.45;;;;;;;;;;5095167;28;20338;-62
2024/03/11 14:18:39;;;;;;;4.40;2.90;;;;;;;;;;5096313;28;20024;-62
2024/03/11 14:21:08;;;;;;;5.80;2.88;;;;;;;;;;5095581;28;20089;-64
2024/03/11 14:23:36;;;;;;;9.43;2.83;;;;;;;;;;5096116;28;20031;-63
2024/03/11 14:26:02;;;;;;;4.13;2.65;;;;;;;;;;5095388;28;20020;-63
2024/03/11 14:28:28;;;;;;;4.80;2.58;;;;;;;;;;5095589;28;20343;-62
2024/03/11 14:30:54;;;;;;;5.57;2.67;;;;;;;;;;5095109;28;20035;-62
2024/03/11 14:33:20;;;;;;;6.43;2.60;;;;;;;;;;5095443;28;20031;-61
2024/03/11 14:35:46;;;;;;;6.30;2.53;;;;;;;;;;5094527;28;20354;-62
2024/03/11 14:38:12;;;;;;;5.15;2.47;;;;;;;;;;5094343;28;20123;-63
2024/03/11 14:40:44;;;;;;;4.70;2.20;;;;;;;;;;5094542;28;20177;-61
2024/03/11 14:43:10;;;;;;;5.40;2.30;;;;;;;;;;5093515;28;20027;-62